createdAt,value
2023-05-23T00:00:59.710Z,12.73
2023-05-23T00:03:27.120Z,10.33
2023-05-23T00:05:54.055Z,8.43
2023-05-23T00:08:21.052Z,8.77
2023-05-23T00:10:47.850Z,12.53
2023-05-23T00:13:14.925Z,7.77
2023-05-23T00:15:42.619Z,11.07
2023-05-23T00:18:11.296Z,9.70
2023-05-23T00:20:41.032Z,11.40
2023-05-23T00:23:09.586Z,9.37
2023-05-23T00:25:36.833Z,14.90
2023-05-23T00:28:04.335Z,14.27
2023-05-23T00:30:32.285Z,8.57
2023-05-23T00:33:00.451Z,12.10
2023-05-23T00:35:27.613Z,13.50
2023-05-23T00:37:55.731Z,13.53
2023-05-23T00:40:23.277Z,12.27
2023-05-23T00:42:50.344Z,15.13
2023-05-23T00:45:17.923Z,11.07
2023-05-23T00:47:45.255Z,11.30
2023-05-23T00:50:18.175Z,18.13
2023-05-23T00:52:46.098Z,13.83
2023-05-23T00:55:13.531Z,14.40
2023-05-23T00:57:41.777Z,13.77
2023-05-23T01:00:10.274Z,12.27
2023-05-23T01:02:56.205Z,12.83
2023-05-23T01:05:25.185Z,12.73
2023-05-23T01:07:52.833Z,12.03
2023-05-23T01:10:21.579Z,13.67
2023-05-23T01:12:57.210Z,12.90
2023-05-23T01:15:27.981Z,15.27
2023-05-23T01:17:54.878Z,12.13
2023-05-23T01:20:22.935Z,13.40
2023-05-23T01:23:02.372Z,19.83
2023-05-23T01:25:48.176Z,14.50
2023-05-23T01:28:16.939Z,13.00
2023-05-23T01:30:45.721Z,10.13
2023-05-23T01:33:14.683Z,12.37
2023-05-23T01:35:43.980Z,10.37
2023-05-23T01:38:10.852Z,11.37
2023-05-23T01:40:39.218Z,13.97
2023-05-23T01:43:06.503Z,11.63
2023-05-23T01:45:33.982Z,12.77
2023-05-23T01:48:01.404Z,12.53
2023-05-23T01:50:28.523Z,17.00
2023-05-23T01:52:56.364Z,14.97
2023-05-23T01:55:26.694Z,13.13
2023-05-23T01:57:57.892Z,16.03
2023-05-23T02:00:25.260Z,14.17
2023-05-23T02:02:52.392Z,19.10
2023-05-23T02:05:19.512Z,13.73
2023-05-23T02:07:46.356Z,13.33
2023-05-23T02:10:13.327Z,11.53
2023-05-23T02:12:40.165Z,12.30
2023-05-23T02:15:07.911Z,15.83
2023-05-23T02:17:35.028Z,11.27
2023-05-23T02:20:01.932Z,12.67
2023-05-23T02:22:28.840Z,11.20
2023-05-23T02:24:56.085Z,11.83
2023-05-23T02:27:23.073Z,10.70
2023-05-23T02:29:49.933Z,17.30
2023-05-23T02:32:16.908Z,10.17
2023-05-23T02:34:46.833Z,16.47
2023-05-23T02:37:14.170Z,17.30
2023-05-23T02:39:41.755Z,11.93
2023-05-23T02:42:08.836Z,12.77
2023-05-23T02:44:35.899Z,11.50
2023-05-23T02:47:02.951Z,12.63
2023-05-23T02:49:29.852Z,15.67
2023-05-23T02:51:56.844Z,14.03
2023-05-23T02:54:23.787Z,16.10
2023-05-23T02:56:52.526Z,12.63
2023-05-23T02:59:19.441Z,19.50
2023-05-23T03:01:46.366Z,11.60
2023-05-23T03:04:13.975Z,12.37
2023-05-23T03:06:42.397Z,15.07
2023-05-23T03:09:10.205Z,20.30
2023-05-23T03:11:37.564Z,18.37
2023-05-23T03:14:04.487Z,12.47
2023-05-23T03:16:32.096Z,14.93
2023-05-23T03:18:59.402Z,15.70
2023-05-23T03:21:26.345Z,15.77
2023-05-23T03:23:53.444Z,13.63
2023-05-23T03:26:22.149Z,13.13
2023-05-23T03:28:51.492Z,13.40
2023-05-23T03:31:19.821Z,14.40
2023-05-23T03:33:46.726Z,14.13
2023-05-23T03:36:13.717Z,8.73
2023-05-23T03:38:41.454Z,13.07
2023-05-23T03:41:08.589Z,15.27
2023-05-23T03:43:35.604Z,13.90
2023-05-23T03:46:02.834Z,13.20
2023-05-23T03:48:30.820Z,14.13
2023-05-23T03:50:57.851Z,13.23
2023-05-23T03:53:25.474Z,11.87
2023-05-23T03:55:54.218Z,10.57
2023-05-23T03:58:21.641Z,15.20
2023-05-23T04:00:53.403Z,13.63
2023-05-23T04:03:21.588Z,13.40
2023-05-23T04:05:50.384Z,15.30
2023-05-23T04:08:17.976Z,13.97
2023-05-23T04:10:44.970Z,15.80
2023-05-23T04:13:12.018Z,14.53
2023-05-23T04:15:40.170Z,13.67
2023-05-23T04:18:11.026Z,15.37
2023-05-23T04:20:38.238Z,14.80
2023-05-23T04:23:05.671Z,14.63
2023-05-23T04:25:36.192Z,13.50
2023-05-23T04:28:13.328Z,11.17
2023-05-23T04:30:40.428Z,14.40
2023-05-23T04:33:08.250Z,15.43
2023-05-23T04:35:39.152Z,11.17
2023-05-23T04:38:06.792Z,14.27
2023-05-23T04:40:34.237Z,12.13
2023-05-23T04:43:22.073Z,14.13
2023-05-23T04:45:58.479Z,15.10
2023-05-23T04:48:36.262Z,15.80
2023-05-23T04:51:06.533Z,17.80
2023-05-23T04:53:35.088Z,15.03
2023-05-23T04:56:02.735Z,9.80
2023-05-23T04:58:32.030Z,12.03
2023-05-23T05:01:03.803Z,13.43
2023-05-23T05:03:31.958Z,12.07
2023-05-23T05:05:59.489Z,15.83
2023-05-23T05:08:26.307Z,12.57
2023-05-23T05:10:54.575Z,13.97
2023-05-23T05:13:21.545Z,10.90
2023-05-23T05:15:52.988Z,14.53
2023-05-23T05:18:20.271Z,12.87
2023-05-23T05:20:47.422Z,12.93
2023-05-23T05:23:16.228Z,10.47
2023-05-23T05:25:43.381Z,10.63
2023-05-23T05:28:10.308Z,18.23
2023-05-23T05:30:46.630Z,9.83
2023-05-23T05:33:14.450Z,12.77
2023-05-23T05:35:41.777Z,9.77
2023-05-23T05:38:11.118Z,8.97
2023-05-23T05:40:39.725Z,12.57
2023-05-23T05:43:06.908Z,11.40
2023-05-23T05:45:34.804Z,9.23
2023-05-23T05:48:01.679Z,16.50
2023-05-23T05:50:29.600Z,13.10
2023-05-23T05:52:56.611Z,13.90
2023-05-23T05:55:23.520Z,15.70
2023-05-23T05:57:53.671Z,10.27
2023-05-23T06:00:22.517Z,12.20
2023-05-23T06:02:57.743Z,13.17
2023-05-23T06:05:38.001Z,16.37
2023-05-23T06:08:05.777Z,10.00
2023-05-23T06:10:32.597Z,12.70
2023-05-23T06:13:00.025Z,9.37
2023-05-23T06:15:27.305Z,9.60
2023-05-23T06:17:54.306Z,12.97
2023-05-23T06:20:21.601Z,11.07
2023-05-23T06:22:48.735Z,12.77
2023-05-23T06:25:15.592Z,11.53
2023-05-23T06:27:42.849Z,11.70
2023-05-23T06:30:09.995Z,12.70
2023-05-23T06:32:37.048Z,10.90
2023-05-23T06:35:04.287Z,9.37
2023-05-23T06:37:33.138Z,13.80
2023-05-23T06:39:59.944Z,9.00
2023-05-23T06:42:27.277Z,9.97
2023-05-23T06:45:06.170Z,7.57
2023-05-23T06:47:33.183Z,9.27
2023-05-23T06:50:03.252Z,9.83
2023-05-23T06:52:31.590Z,9.27
2023-05-23T06:54:59.300Z,11.10
2023-05-23T06:57:26.566Z,10.20
2023-05-23T06:59:53.411Z,11.40
2023-05-23T07:02:20.939Z,10.00
2023-05-23T07:04:47.795Z,13.97
2023-05-23T07:07:30.759Z,8.10
2023-05-23T07:09:57.604Z,11.30
2023-05-23T07:12:24.452Z,8.93
2023-05-23T07:14:52.130Z,9.50
2023-05-23T07:17:20.577Z,12.03
2023-05-23T07:19:47.959Z,9.50
2023-05-23T07:22:14.938Z,14.83
2023-05-23T07:24:43.467Z,10.47
2023-05-23T07:27:11.218Z,10.40
2023-05-23T07:29:39.135Z,9.17
2023-05-23T07:32:08.037Z,11.30
2023-05-23T07:34:34.886Z,8.40
2023-05-23T07:37:02.542Z,9.83
2023-05-23T07:39:36.914Z,8.50
2023-05-23T07:42:05.063Z,9.37
2023-05-23T07:44:31.967Z,11.33
2023-05-23T07:46:59.079Z,10.53
2023-05-23T07:49:26.148Z,10.50
2023-05-23T07:51:54.369Z,8.20
2023-05-23T07:54:21.651Z,12.53
2023-05-23T07:56:53.227Z,10.43
2023-05-23T07:59:20.157Z,11.27
2023-05-23T08:01:52.644Z,8.13
2023-05-23T08:04:21.945Z,10.00
2023-05-23T08:07:05.130Z,7.03
2023-05-23T08:09:55.405Z,11.60
2023-05-23T08:12:23.274Z,11.50
2023-05-23T08:14:58.531Z,9.17
2023-05-23T08:17:48.502Z,11.57
2023-05-23T08:20:16.816Z,11.67
2023-05-23T08:22:45.724Z,19.93
2023-05-23T08:25:12.669Z,14.17
2023-05-23T08:27:40.872Z,10.43
2023-05-23T08:30:23.443Z,8.50
2023-05-23T08:32:50.566Z,10.67
2023-05-23T08:35:17.383Z,7.60
2023-05-23T08:37:46.441Z,8.53
2023-05-23T08:40:20.564Z,13.40
2023-05-23T08:42:55.175Z,7.37
2023-05-23T08:45:22.299Z,10.53
2023-05-23T08:47:49.309Z,10.03
2023-05-23T08:50:22.555Z,14.33
2023-05-23T08:52:54.819Z,12.53
2023-05-23T08:55:22.729Z,11.30
2023-05-23T08:57:49.884Z,15.23
2023-05-23T09:00:43.705Z,9.23
2023-05-23T09:03:12.611Z,13.97
2023-05-23T09:06:02.769Z,11.70
2023-05-23T09:08:31.095Z,11.83
2023-05-23T09:10:59.238Z,9.50
2023-05-23T09:13:28.718Z,12.43
2023-05-23T09:15:57.045Z,11.97
2023-05-23T09:18:25.584Z,10.93
2023-05-23T09:20:53.117Z,18.17
2023-05-23T09:23:20.406Z,20.17
2023-05-23T09:25:47.936Z,13.53
2023-05-23T09:28:16.512Z,13.30
2023-05-23T09:30:43.537Z,11.43
2023-05-23T09:33:10.385Z,27.57
2023-05-23T09:35:43.683Z,17.33
2023-05-23T09:38:10.809Z,11.20
2023-05-23T09:40:37.627Z,14.37
2023-05-23T09:43:05.040Z,15.20
2023-05-23T09:45:32.393Z,11.67
2023-05-23T09:48:01.858Z,10.70
2023-05-23T09:50:32.211Z,12.67
2023-05-23T09:53:00.445Z,10.67
2023-05-23T09:55:27.731Z,13.67
2023-05-23T09:57:56.943Z,14.47
2023-05-23T10:00:25.306Z,7.80
2023-05-23T10:03:02.082Z,11.00
2023-05-23T10:05:36.537Z,7.53
2023-05-23T10:08:08.323Z,12.63
2023-05-23T10:10:35.826Z,13.83
2023-05-23T10:13:04.547Z,8.77
2023-05-23T10:15:35.194Z,12.03
2023-05-23T10:18:11.410Z,19.97
2023-05-23T10:20:40.761Z,7.63
2023-05-23T10:23:08.135Z,10.17
2023-05-23T10:25:37.325Z,9.27
2023-05-23T10:28:05.565Z,11.73
2023-05-23T10:30:32.718Z,9.33
2023-05-23T10:33:00.334Z,8.53
2023-05-23T10:35:59.867Z,7.70
2023-05-23T10:38:41.889Z,17.10
2023-05-23T10:41:12.215Z,9.13
2023-05-23T10:43:48.272Z,5.87
2023-05-23T10:46:16.580Z,7.63
2023-05-23T10:48:44.008Z,6.73
2023-05-23T10:51:12.484Z,7.40
2023-05-23T10:53:40.335Z,9.50
2023-05-23T10:56:07.931Z,9.33
2023-05-23T10:58:36.231Z,12.67
2023-05-23T11:01:06.331Z,7.57
2023-05-23T11:03:35.980Z,7.87
2023-05-23T11:06:03.656Z,9.67
2023-05-23T11:08:48.565Z,8.57
2023-05-23T11:11:15.989Z,8.43
2023-05-23T11:14:00.838Z,9.50
2023-05-23T11:16:31.207Z,7.80
2023-05-23T11:19:17.335Z,10.77
2023-05-23T11:22:10.645Z,18.17
2023-05-23T11:24:53.688Z,7.87
2023-05-23T11:27:27.303Z,8.10
2023-05-23T11:30:09.764Z,8.70
2023-05-23T11:32:37.509Z,9.33
2023-05-23T11:35:08.550Z,10.23
2023-05-23T11:37:36.331Z,12.90
2023-05-23T11:40:23.048Z,13.53
2023-05-23T11:42:52.811Z,9.33
2023-05-23T11:45:21.183Z,9.67
2023-05-23T11:47:48.075Z,13.00
2023-05-23T11:50:18.765Z,15.07
2023-05-23T11:52:51.433Z,13.63
2023-05-23T11:55:19.527Z,13.73
2023-05-23T11:57:46.540Z,13.53
2023-05-23T12:00:14.127Z,13.27
2023-05-23T12:02:41.423Z,16.23
2023-05-23T12:05:13.774Z,17.27
2023-05-23T12:07:47.652Z,17.40
2023-05-23T12:10:16.484Z,13.33
2023-05-23T12:12:43.644Z,16.90
2023-05-23T12:15:11.832Z,13.07
2023-05-23T12:17:39.423Z,15.30
2023-05-23T12:20:06.873Z,14.47
2023-05-23T12:22:33.853Z,9.40
2023-05-23T12:25:00.819Z,12.77
2023-05-23T12:27:30.393Z,10.67
2023-05-23T12:30:07.511Z,9.40
2023-05-23T12:32:34.584Z,9.40
2023-05-23T12:35:01.476Z,12.43
2023-05-23T12:37:30.165Z,11.27
2023-05-23T12:39:57.087Z,9.63
2023-05-23T12:42:24.073Z,14.67
2023-05-23T12:44:53.991Z,10.90
2023-05-23T12:47:20.912Z,14.77
2023-05-23T12:49:48.294Z,11.07
2023-05-23T12:52:15.551Z,11.67
2023-05-23T12:54:42.480Z,13.87
2023-05-23T12:57:09.345Z,9.53
2023-05-23T12:59:36.338Z,7.23
2023-05-23T13:02:03.471Z,11.93
2023-05-23T13:04:32.125Z,13.60
2023-05-23T13:06:59.477Z,8.50
2023-05-23T13:09:26.409Z,9.33
2023-05-23T13:11:53.347Z,8.97
2023-05-23T13:14:20.245Z,14.47
2023-05-23T13:16:47.467Z,7.43
2023-05-23T13:19:14.394Z,9.17
2023-05-23T13:21:41.232Z,7.07
2023-05-23T13:24:09.060Z,8.83
2023-05-23T13:26:36.050Z,7.00
2023-05-23T13:29:02.883Z,9.70
2023-05-23T13:31:29.806Z,13.83
2023-05-23T13:33:56.804Z,7.93
2023-05-23T13:36:23.676Z,8.67
2023-05-23T13:38:50.501Z,10.60
2023-05-23T13:41:17.818Z,9.80
2023-05-23T13:43:44.657Z,8.53
2023-05-23T13:46:12.486Z,7.57
2023-05-23T13:48:39.308Z,8.60
2023-05-23T13:51:06.215Z,9.13
2023-05-23T13:53:33.108Z,8.73
2023-05-23T13:56:00.050Z,10.00
2023-05-23T13:58:26.991Z,9.67
2023-05-23T14:00:54.378Z,9.70
2023-05-23T14:03:21.392Z,8.63
2023-05-23T14:05:48.492Z,10.60
2023-05-23T14:08:15.532Z,8.80
2023-05-23T14:10:42.709Z,10.10
2023-05-23T14:13:09.780Z,9.13
2023-05-23T14:15:38.669Z,10.20
2023-05-23T14:18:05.780Z,8.67
2023-05-23T14:20:33.429Z,10.97
2023-05-23T14:23:00.326Z,9.00
2023-05-23T14:25:27.138Z,7.87
2023-05-23T14:27:54.361Z,7.87
2023-05-23T14:30:21.208Z,9.63
2023-05-23T14:32:48.092Z,10.43
2023-05-23T14:35:15.234Z,9.80
2023-05-23T14:37:42.022Z,8.70
2023-05-23T14:40:10.773Z,11.57
2023-05-23T14:42:37.985Z,9.00
2023-05-23T14:45:05.244Z,12.17
2023-05-23T14:47:32.821Z,12.17
2023-05-23T14:49:59.884Z,12.47
2023-05-23T14:52:26.954Z,9.43
2023-05-23T14:54:53.972Z,8.23
2023-05-23T14:57:20.890Z,11.00
2023-05-23T14:59:47.956Z,8.07
2023-05-23T15:02:15.007Z,10.47
2023-05-23T15:04:42.020Z,6.83
2023-05-23T15:07:09.109Z,12.30
2023-05-23T15:09:36.289Z,9.10
2023-05-23T15:12:05.397Z,8.83
2023-05-23T15:14:32.402Z,8.47
2023-05-23T15:17:07.935Z,10.43
2023-05-23T15:19:38.253Z,10.63
2023-05-23T15:22:05.735Z,8.87
2023-05-23T15:24:33.774Z,9.90
2023-05-23T15:27:15.904Z,11.60
2023-05-23T15:29:46.858Z,8.80
2023-05-23T15:32:13.811Z,11.30
2023-05-23T15:34:40.806Z,9.50
2023-05-23T15:37:07.747Z,10.30
2023-05-23T15:39:34.559Z,8.60
2023-05-23T15:42:01.757Z,9.20
2023-05-23T15:44:28.740Z,10.23
2023-05-23T15:46:55.951Z,9.93
2023-05-23T15:49:26.529Z,10.30
2023-05-23T15:51:55.707Z,8.27
2023-05-23T15:54:22.896Z,12.63
2023-05-23T15:56:49.745Z,11.60
2023-05-23T15:59:16.782Z,10.77
2023-05-23T16:01:43.618Z,9.97
2023-05-23T16:04:10.557Z,12.20
2023-05-23T16:06:38.358Z,10.63
2023-05-23T16:09:05.207Z,10.10
2023-05-23T16:11:32.094Z,9.03
2023-05-23T16:13:59.556Z,10.97
2023-05-23T16:16:26.469Z,9.43
2023-05-23T16:18:53.505Z,10.80
2023-05-23T16:21:21.281Z,10.77
2023-05-23T16:23:48.724Z,12.63
2023-05-23T16:26:16.877Z,13.17
2023-05-23T16:28:43.969Z,11.47
2023-05-23T16:31:14.147Z,10.87
2023-05-23T16:33:41.164Z,9.33
2023-05-23T16:36:08.276Z,7.87
2023-05-23T16:38:35.163Z,9.43
2023-05-23T16:41:01.940Z,10.43
2023-05-23T16:43:28.870Z,11.03
2023-05-23T16:45:55.807Z,10.23
2023-05-23T16:48:22.767Z,12.40
2023-05-23T16:50:49.601Z,11.57
2023-05-23T16:53:16.485Z,11.67
2023-05-23T16:55:43.726Z,13.57
2023-05-23T16:58:12.420Z,16.10
2023-05-23T17:00:39.778Z,11.50
2023-05-23T17:03:06.915Z,12.60
2023-05-23T17:05:34.202Z,14.87
2023-05-23T17:08:01.112Z,12.67
2023-05-23T17:10:28.475Z,9.37
2023-05-23T17:12:55.437Z,12.90
2023-05-23T17:15:22.400Z,10.00
2023-05-23T17:17:49.277Z,10.73
2023-05-23T17:20:16.465Z,11.33
2023-05-23T17:22:43.720Z,14.57
2023-05-23T17:25:10.769Z,10.30
2023-05-23T17:27:37.550Z,11.33
2023-05-23T17:30:05.366Z,12.70
2023-05-23T17:32:32.287Z,14.37
2023-05-23T17:34:59.347Z,18.93
2023-05-23T17:37:26.641Z,21.37
2023-05-23T17:39:55.963Z,23.17
2023-05-23T17:42:24.800Z,19.90
2023-05-23T17:44:51.630Z,17.83
2023-05-23T17:47:18.702Z,27.17
2023-05-23T17:49:45.672Z,15.43
2023-05-23T17:52:15.082Z,13.43
2023-05-23T17:54:42.214Z,17.43
2023-05-23T17:57:09.529Z,14.80
2023-05-23T17:59:36.502Z,17.67
2023-05-23T18:02:04.994Z,12.13
2023-05-23T18:04:31.985Z,10.77
2023-05-23T18:06:58.846Z,13.20
2023-05-23T18:09:25.789Z,9.23
2023-05-23T18:11:52.936Z,11.13
2023-05-23T18:14:19.923Z,10.73
2023-05-23T18:16:47.022Z,10.83
2023-05-23T18:19:14.032Z,12.77
2023-05-23T18:21:41.022Z,13.47
2023-05-23T18:24:11.927Z,14.37
2023-05-23T18:26:43.302Z,14.80
2023-05-23T18:29:10.360Z,15.47
2023-05-23T18:31:37.280Z,11.50
2023-05-23T18:34:04.586Z,18.53
2023-05-23T18:36:31.872Z,11.67
2023-05-23T18:38:59.069Z,13.60
2023-05-23T18:41:28.135Z,12.47
2023-05-23T18:43:55.017Z,11.93
2023-05-23T18:46:24.298Z,11.03
2023-05-23T18:48:52.499Z,18.27
2023-05-23T18:51:19.537Z,11.67
2023-05-23T18:53:47.158Z,14.87
2023-05-23T18:56:14.099Z,11.83
2023-05-23T18:58:40.887Z,19.57
2023-05-23T19:01:07.883Z,12.77
2023-05-23T19:03:36.872Z,14.37
2023-05-23T19:06:04.237Z,13.90
2023-05-23T19:08:31.967Z,16.73
2023-05-23T19:10:59.246Z,38.83
2023-05-23T19:13:26.577Z,36.40
2023-05-23T19:15:53.620Z,35.77
2023-05-23T19:18:20.715Z,27.03
2023-05-23T19:20:54.369Z,26.03
2023-05-23T19:23:21.605Z,19.13
2023-05-23T19:25:48.470Z,14.40
2023-05-23T19:28:15.464Z,14.83
2023-05-23T19:30:42.740Z,14.07
2023-05-23T19:33:10.365Z,14.77
2023-05-23T19:35:37.499Z,12.57
2023-05-23T19:38:04.652Z,11.53
2023-05-23T19:40:31.449Z,13.33
2023-05-23T19:42:58.258Z,14.03
2023-05-23T19:45:25.195Z,14.00
2023-05-23T19:47:52.051Z,13.20
2023-05-23T19:50:19.286Z,16.00
2023-05-23T19:52:46.189Z,13.33
2023-05-23T19:55:13.059Z,14.33
2023-05-23T19:57:39.999Z,15.60
2023-05-23T20:00:07.472Z,16.33
2023-05-23T20:02:34.468Z,15.83
2023-05-23T20:05:01.283Z,17.27
2023-05-23T20:07:28.182Z,21.17
2023-05-23T20:09:55.807Z,15.53
2023-05-23T20:12:23.491Z,26.20
2023-05-23T20:14:50.305Z,22.33
2023-05-23T20:17:17.274Z,19.00
2023-05-23T20:19:44.043Z,15.70
2023-05-23T20:22:10.920Z,14.40
2023-05-23T20:24:37.769Z,14.40
2023-05-23T20:27:04.643Z,14.90
2023-05-23T20:29:32.631Z,19.63
2023-05-23T20:31:59.621Z,19.37
2023-05-23T20:34:26.405Z,14.00
2023-05-23T20:36:53.434Z,14.67
2023-05-23T20:39:22.091Z,13.33
2023-05-23T20:41:49.224Z,14.90
2023-05-23T20:44:19.077Z,13.47
2023-05-23T20:46:46.119Z,17.53
2023-05-23T20:49:13.042Z,16.40
2023-05-23T20:51:39.899Z,15.23
2023-05-23T20:54:07.338Z,14.00
2023-05-23T20:56:34.203Z,14.90
2023-05-23T20:59:01.472Z,14.50
2023-05-23T21:01:28.543Z,15.20
2023-05-23T21:03:55.726Z,13.70
2023-05-23T21:06:22.653Z,18.67
2023-05-23T21:08:49.715Z,15.73
2023-05-23T21:11:16.537Z,14.37
2023-05-23T21:13:43.483Z,18.13
2023-05-23T21:16:14.533Z,15.00
2023-05-23T21:18:41.720Z,16.07
2023-05-23T21:21:08.568Z,14.90
2023-05-23T21:23:35.835Z,16.67
2023-05-23T21:26:02.724Z,16.50
2023-05-23T21:28:29.643Z,16.77
2023-05-23T21:30:57.386Z,20.63
2023-05-23T21:33:24.324Z,19.60
2023-05-23T21:35:51.456Z,18.13
2023-05-23T21:38:18.402Z,19.17
2023-05-23T21:40:45.302Z,20.67
2023-05-23T21:43:12.134Z,20.37
2023-05-23T21:45:39.066Z,19.07
2023-05-23T21:48:05.956Z,16.57
2023-05-23T21:50:32.907Z,19.07
2023-05-23T21:52:59.771Z,17.97
2023-05-23T21:55:27.453Z,19.70
2023-05-23T21:57:54.239Z,19.17
2023-05-23T22:00:22.840Z,20.07
2023-05-23T22:02:49.880Z,22.57
2023-05-23T22:05:16.869Z,19.77
2023-05-23T22:07:43.783Z,20.80
2023-05-23T22:10:10.927Z,21.13
2023-05-23T22:12:37.988Z,21.57
2023-05-23T22:15:05.407Z,18.90
2023-05-23T22:17:34.231Z,19.43
2023-05-23T22:20:02.514Z,21.03
2023-05-23T22:22:29.565Z,22.37
2023-05-23T22:24:56.422Z,18.33
2023-05-23T22:27:23.273Z,19.97
2023-05-23T22:29:50.229Z,21.20
2023-05-23T22:32:17.011Z,21.87
2023-05-23T22:34:46.207Z,19.80
2023-05-23T22:37:13.024Z,20.77
2023-05-23T22:39:39.893Z,23.30
2023-05-23T22:42:07.167Z,22.67
2023-05-23T22:44:33.985Z,20.30
2023-05-23T22:47:00.907Z,18.90
2023-05-23T22:49:30.393Z,18.60
2023-05-23T22:51:57.696Z,21.33
2023-05-23T22:54:24.570Z,21.43
2023-05-23T22:56:51.608Z,21.70
2023-05-23T22:59:18.452Z,23.90
2023-05-23T23:01:46.558Z,18.40
2023-05-23T23:04:13.482Z,20.40
2023-05-23T23:06:43.429Z,21.13
2023-05-23T23:09:10.463Z,23.17
2023-05-23T23:11:37.336Z,18.97
2023-05-23T23:14:04.280Z,18.93
2023-05-23T23:16:31.137Z,19.73
2023-05-23T23:18:58.368Z,20.73
2023-05-23T23:21:25.210Z,22.57
2023-05-23T23:23:51.992Z,20.20
2023-05-23T23:26:18.895Z,20.73
2023-05-23T23:28:45.926Z,19.50
2023-05-23T23:31:12.732Z,24.27
2023-05-23T23:33:39.749Z,18.17
2023-05-23T23:36:07.188Z,17.47
2023-05-23T23:38:34.154Z,22.07
2023-05-23T23:41:00.986Z,23.60
2023-05-23T23:43:28.017Z,20.43
2023-05-23T23:45:54.882Z,20.27
2023-05-23T23:48:21.674Z,23.67
2023-05-23T23:50:48.597Z,19.47
2023-05-23T23:53:15.484Z,18.73
2023-05-23T23:55:42.447Z,19.50
2023-05-23T23:58:09.279Z,18.33
